sensor_id;sensor_type;location;lat;lon;timestamp;P1;durP1;ratioP1;P2;durP2;ratioP2
23159;SDS011;11748;50.844;4.396;2023-01-23T00:01:53;32.70;;;20.70;;
23159;SDS011;11748;50.844;4.396;2023-01-23T00:04:19;38.13;;;22.38;;
23159;SDS011;11748;50.844;4.396;2023-01-23T00:06:45;37.97;;;23.05;;
23159;SDS011;11748;50.844;4.396;2023-01-23T00:09:11;36.80;;;22.67;;
23159;SDS011;11748;50.844;4.396;2023-01-23T00:11:36;37.60;;;21.88;;
23159;SDS011;11748;50.844;4.396;2023-01-23T00:14:02;37.72;;;22.35;;
23159;SDS011;11748;50.844;4.396;2023-01-23T00:16:30;39.85;;;24.63;;
23159;SDS011;11748;50.844;4.396;2023-01-23T00:18:56;39.42;;;22.35;;
23159;SDS011;11748;50.844;4.396;2023-01-23T00:21:24;38.15;;;23.83;;
23159;SDS011;11748;50.844;4.396;2023-01-23T00:23:53;39.65;;;23.55;;
23159;SDS011;11748;50.844;4.396;2023-01-23T00:26:24;41.35;;;25.00;;
23159;SDS011;11748;50.844;4.396;2023-01-23T00:28:53;45.30;;;24.88;;
23159;SDS011;11748;50.844;4.396;2023-01-23T00:31:25;40.17;;;22.75;;
23159;SDS011;11748;50.844;4.396;2023-01-23T00:33:56;38.13;;;24.08;;
23159;SDS011;11748;50.844;4.396;2023-01-23T00:36:24;40.78;;;24.67;;
23159;SDS011;11748;50.844;4.396;2023-01-23T00:38:53;43.72;;;24.85;;
23159;SDS011;11748;50.844;4.396;2023-01-23T00:41:19;42.90;;;25.92;;
23159;SDS011;11748;50.844;4.396;2023-01-23T00:43:45;44.30;;;25.98;;
23159;SDS011;11748;50.844;4.396;2023-01-23T00:46:12;43.80;;;25.52;;
23159;SDS011;11748;50.844;4.396;2023-01-23T00:48:38;49.25;;;25.00;;
23159;SDS011;11748;50.844;4.396;2023-01-23T00:51:04;44.33;;;25.27;;
23159;SDS011;11748;50.844;4.396;2023-01-23T00:53:30;44.40;;;25.95;;
23159;SDS011;11748;50.844;4.396;2023-01-23T00:55:55;44.70;;;25.42;;
23159;SDS011;11748;50.844;4.396;2023-01-23T00:58:21;43.53;;;24.67;;
23159;SDS011;11748;50.844;4.396;2023-01-23T01:00:47;47.47;;;25.52;;
23159;SDS011;11748;50.844;4.396;2023-01-23T01:03:12;42.63;;;25.38;;
23159;SDS011;11748;50.844;4.396;2023-01-23T01:05:38;50.70;;;29.05;;
23159;SDS011;11748;50.844;4.396;2023-01-23T01:08:04;48.22;;;26.70;;
23159;SDS011;11748;50.844;4.396;2023-01-23T01:10:30;50.40;;;26.30;;
23159;SDS011;11748;50.844;4.396;2023-01-23T01:12:57;48.45;;;26.30;;
23159;SDS011;11748;50.844;4.396;2023-01-23T01:15:24;47.30;;;26.10;;
23159;SDS011;11748;50.844;4.396;2023-01-23T01:17:51;48.42;;;27.10;;
23159;SDS011;11748;50.844;4.396;2023-01-23T01:20:22;46.03;;;26.73;;
23159;SDS011;11748;50.844;4.396;2023-01-23T01:22:50;53.17;;;27.85;;
23159;SDS011;11748;50.844;4.396;2023-01-23T01:25:17;51.95;;;26.75;;
23159;SDS011;11748;50.844;4.396;2023-01-23T01:27:43;50.17;;;26.83;;
23159;SDS011;11748;50.844;4.396;2023-01-23T01:30:09;51.40;;;27.00;;
23159;SDS011;11748;50.844;4.396;2023-01-23T01:32:39;53.45;;;28.20;;
23159;SDS011;11748;50.844;4.396;2023-01-23T01:35:05;48.80;;;26.25;;
23159;SDS011;11748;50.844;4.396;2023-01-23T01:37:36;51.95;;;26.45;;
23159;SDS011;11748;50.844;4.396;2023-01-23T01:40:03;48.05;;;26.77;;
23159;SDS011;11748;50.844;4.396;2023-01-23T01:42:30;50.00;;;26.15;;
23159;SDS011;11748;50.844;4.396;2023-01-23T01:45:02;49.83;;;26.52;;
23159;SDS011;11748;50.844;4.396;2023-01-23T01:47:28;52.28;;;28.13;;
23159;SDS011;11748;50.844;4.396;2023-01-23T01:49:58;52.13;;;27.77;;
23159;SDS011;11748;50.844;4.396;2023-01-23T01:52:26;49.65;;;27.73;;
23159;SDS011;11748;50.844;4.396;2023-01-23T01:54:54;56.30;;;28.40;;
23159;SDS011;11748;50.844;4.396;2023-01-23T01:59:56;56.63;;;27.33;;
23159;SDS011;11748;50.844;4.396;2023-01-23T02:02:41;54.17;;;28.63;;
23159;SDS011;11748;50.844;4.396;2023-01-23T02:05:25;51.53;;;27.85;;
23159;SDS011;11748;50.844;4.396;2023-01-23T02:10:41;57.05;;;28.02;;
23159;SDS011;11748;50.844;4.396;2023-01-23T02:16:00;55.95;;;28.30;;
23159;SDS011;11748;50.844;4.396;2023-01-23T02:18:29;56.47;;;29.08;;
23159;SDS011;11748;50.844;4.396;2023-01-23T02:20:57;55.42;;;29.48;;
23159;SDS011;11748;50.844;4.396;2023-01-23T02:26:16;57.88;;;30.02;;
23159;SDS011;11748;50.844;4.396;2023-01-23T02:28:47;62.75;;;30.10;;
23159;SDS011;11748;50.844;4.396;2023-01-23T02:31:15;60.58;;;31.00;;
23159;SDS011;11748;50.844;4.396;2023-01-23T02:33:43;60.85;;;29.92;;
23159;SDS011;11748;50.844;4.396;2023-01-23T02:36:11;60.78;;;30.70;;
23159;SDS011;11748;50.844;4.396;2023-01-23T02:38:48;66.70;;;31.33;;
23159;SDS011;11748;50.844;4.396;2023-01-23T02:41:28;63.80;;;30.60;;
23159;SDS011;11748;50.844;4.396;2023-01-23T02:43:57;68.25;;;32.13;;
23159;SDS011;11748;50.844;4.396;2023-01-23T02:46:26;62.58;;;31.55;;
23159;SDS011;11748;50.844;4.396;2023-01-23T02:48:52;67.45;;;31.38;;
23159;SDS011;11748;50.844;4.396;2023-01-23T02:51:18;65.30;;;31.90;;
23159;SDS011;11748;50.844;4.396;2023-01-23T02:53:45;64.05;;;31.80;;
23159;SDS011;11748;50.844;4.396;2023-01-23T02:56:12;66.03;;;31.23;;
23159;SDS011;11748;50.844;4.396;2023-01-23T02:58:38;65.72;;;31.25;;
23159;SDS011;11748;50.844;4.396;2023-01-23T03:01:22;67.20;;;32.28;;
23159;SDS011;11748;50.844;4.396;2023-01-23T03:03:49;69.47;;;33.28;;
23159;SDS011;11748;50.844;4.396;2023-01-23T03:06:17;68.65;;;33.08;;
23159;SDS011;11748;50.844;4.396;2023-01-23T03:08:43;73.05;;;35.55;;
23159;SDS011;11748;50.844;4.396;2023-01-23T03:11:13;69.28;;;31.70;;
23159;SDS011;11748;50.844;4.396;2023-01-23T03:13:41;70.03;;;32.47;;
23159;SDS011;11748;50.844;4.396;2023-01-23T03:16:08;66.40;;;33.00;;
23159;SDS011;11748;50.844;4.396;2023-01-23T03:18:34;78.10;;;33.03;;
23159;SDS011;11748;50.844;4.396;2023-01-23T03:21:03;60.28;;;29.60;;
23159;SDS011;11748;50.844;4.396;2023-01-23T03:23:30;65.57;;;30.48;;
23159;SDS011;11748;50.844;4.396;2023-01-23T03:25:56;72.22;;;33.30;;
23159;SDS011;11748;50.844;4.396;2023-01-23T03:28:25;65.90;;;31.88;;
23159;SDS011;11748;50.844;4.396;2023-01-23T03:31:10;68.88;;;30.90;;
23159;SDS011;11748;50.844;4.396;2023-01-23T03:33:37;64.00;;;31.98;;
23159;SDS011;11748;50.844;4.396;2023-01-23T03:36:06;63.88;;;31.38;;
23159;SDS011;11748;50.844;4.396;2023-01-23T03:38:32;67.72;;;32.13;;
23159;SDS011;11748;50.844;4.396;2023-01-23T03:40:58;66.28;;;31.10;;
23159;SDS011;11748;50.844;4.396;2023-01-23T03:43:42;66.85;;;30.38;;
23159;SDS011;11748;50.844;4.396;2023-01-23T03:46:07;70.32;;;32.05;;
23159;SDS011;11748;50.844;4.396;2023-01-23T03:48:33;65.80;;;30.98;;
23159;SDS011;11748;50.844;4.396;2023-01-23T03:50:59;66.97;;;29.38;;
23159;SDS011;11748;50.844;4.396;2023-01-23T03:53:25;69.07;;;32.13;;
23159;SDS011;11748;50.844;4.396;2023-01-23T03:55:50;60.17;;;30.25;;
23159;SDS011;11748;50.844;4.396;2023-01-23T03:58:16;70.85;;;31.67;;
23159;SDS011;11748;50.844;4.396;2023-01-23T04:00:42;65.18;;;31.67;;
23159;SDS011;11748;50.844;4.396;2023-01-23T04:03:07;67.90;;;31.88;;
23159;SDS011;11748;50.844;4.396;2023-01-23T04:05:33;71.20;;;32.55;;
23159;SDS011;11748;50.844;4.396;2023-01-23T04:07:59;65.07;;;30.75;;
23159;SDS011;11748;50.844;4.396;2023-01-23T04:10:25;68.65;;;31.58;;
23159;SDS011;11748;50.844;4.396;2023-01-23T04:12:51;71.80;;;32.17;;
23159;SDS011;11748;50.844;4.396;2023-01-23T04:15:17;67.35;;;29.00;;
23159;SDS011;11748;50.844;4.396;2023-01-23T04:17:43;70.43;;;32.50;;
23159;SDS011;11748;50.844;4.396;2023-01-23T04:20:09;64.55;;;30.70;;
23159;SDS011;11748;50.844;4.396;2023-01-23T04:22:36;63.40;;;31.63;;
23159;SDS011;11748;50.844;4.396;2023-01-23T04:25:02;64.32;;;31.17;;
23159;SDS011;11748;50.844;4.396;2023-01-23T04:27:28;73.18;;;33.28;;
23159;SDS011;11748;50.844;4.396;2023-01-23T04:29:54;66.20;;;31.20;;
23159;SDS011;11748;50.844;4.396;2023-01-23T04:32:19;68.40;;;32.63;;
23159;SDS011;11748;50.844;4.396;2023-01-23T04:34:45;71.00;;;32.28;;
23159;SDS011;11748;50.844;4.396;2023-01-23T04:37:11;65.00;;;30.95;;
23159;SDS011;11748;50.844;4.396;2023-01-23T04:39:36;68.13;;;31.98;;
23159;SDS011;11748;50.844;4.396;2023-01-23T04:42:02;67.35;;;29.98;;
23159;SDS011;11748;50.844;4.396;2023-01-23T04:44:28;68.25;;;30.75;;
23159;SDS011;11748;50.844;4.396;2023-01-23T04:46:53;65.60;;;30.80;;
23159;SDS011;11748;50.844;4.396;2023-01-23T04:49:22;65.82;;;32.08;;
23159;SDS011;11748;50.844;4.396;2023-01-23T04:51:49;66.70;;;31.30;;
23159;SDS011;11748;50.844;4.396;2023-01-23T04:54:15;66.28;;;31.17;;
23159;SDS011;11748;50.844;4.396;2023-01-23T04:56:42;65.65;;;30.20;;
23159;SDS011;11748;50.844;4.396;2023-01-23T04:59:08;63.25;;;30.58;;
23159;SDS011;11748;50.844;4.396;2023-01-23T05:01:35;64.30;;;30.42;;
23159;SDS011;11748;50.844;4.396;2023-01-23T05:04:01;70.80;;;30.02;;
23159;SDS011;11748;50.844;4.396;2023-01-23T05:06:27;68.13;;;30.08;;
23159;SDS011;11748;50.844;4.396;2023-01-23T05:08:53;65.38;;;28.70;;
23159;SDS011;11748;50.844;4.396;2023-01-23T05:11:19;63.72;;;30.30;;
23159;SDS011;11748;50.844;4.396;2023-01-23T05:13:45;67.30;;;30.60;;
23159;SDS011;11748;50.844;4.396;2023-01-23T05:16:11;67.03;;;31.10;;
23159;SDS011;11748;50.844;4.396;2023-01-23T05:18:36;67.65;;;30.85;;
23159;SDS011;11748;50.844;4.396;2023-01-23T05:21:02;72.30;;;29.90;;
23159;SDS011;11748;50.844;4.396;2023-01-23T05:23:29;70.25;;;31.17;;
23159;SDS011;11748;50.844;4.396;2023-01-23T05:25:56;63.35;;;30.13;;
23159;SDS011;11748;50.844;4.396;2023-01-23T05:28:21;67.15;;;29.65;;
23159;SDS011;11748;50.844;4.396;2023-01-23T05:30:48;69.38;;;31.60;;
23159;SDS011;11748;50.844;4.396;2023-01-23T05:33:13;70.10;;;30.20;;
23159;SDS011;11748;50.844;4.396;2023-01-23T05:35:39;71.47;;;30.45;;
23159;SDS011;11748;50.844;4.396;2023-01-23T05:38:05;68.25;;;32.55;;
23159;SDS011;11748;50.844;4.396;2023-01-23T05:40:31;70.22;;;30.52;;
23159;SDS011;11748;50.844;4.396;2023-01-23T05:42:57;66.32;;;30.63;;
23159;SDS011;11748;50.844;4.396;2023-01-23T05:45:23;82.03;;;32.58;;
23159;SDS011;11748;50.844;4.396;2023-01-23T05:47:48;70.20;;;31.20;;
23159;SDS011;11748;50.844;4.396;2023-01-23T05:50:16;67.70;;;31.42;;
23159;SDS011;11748;50.844;4.396;2023-01-23T05:52:43;77.45;;;31.88;;
23159;SDS011;11748;50.844;4.396;2023-01-23T05:55:10;65.00;;;30.42;;
23159;SDS011;11748;50.844;4.396;2023-01-23T05:57:36;73.35;;;32.05;;
23159;SDS011;11748;50.844;4.396;2023-01-23T06:00:03;73.00;;;31.83;;
23159;SDS011;11748;50.844;4.396;2023-01-23T06:02:29;71.18;;;31.48;;
23159;SDS011;11748;50.844;4.396;2023-01-23T06:04:55;72.95;;;31.15;;
23159;SDS011;11748;50.844;4.396;2023-01-23T06:07:21;83.90;;;33.72;;
23159;SDS011;11748;50.844;4.396;2023-01-23T06:09:47;70.85;;;32.72;;
23159;SDS011;11748;50.844;4.396;2023-01-23T06:12:13;80.00;;;31.90;;
23159;SDS011;11748;50.844;4.396;2023-01-23T06:14:38;69.57;;;32.13;;
23159;SDS011;11748;50.844;4.396;2023-01-23T06:17:04;74.05;;;31.75;;
23159;SDS011;11748;50.844;4.396;2023-01-23T06:19:31;71.35;;;31.23;;
23159;SDS011;11748;50.844;4.396;2023-01-23T06:21:56;70.97;;;31.38;;
23159;SDS011;11748;50.844;4.396;2023-01-23T06:24:22;69.00;;;31.30;;
23159;SDS011;11748;50.844;4.396;2023-01-23T06:26:48;73.45;;;31.63;;
23159;SDS011;11748;50.844;4.396;2023-01-23T06:29:15;69.25;;;30.13;;
23159;SDS011;11748;50.844;4.396;2023-01-23T06:31:40;75.50;;;32.42;;
23159;SDS011;11748;50.844;4.396;2023-01-23T06:34:06;74.07;;;31.33;;
23159;SDS011;11748;50.844;4.396;2023-01-23T06:36:32;77.65;;;37.22;;
23159;SDS011;11748;50.844;4.396;2023-01-23T06:38:58;83.80;;;38.45;;
23159;SDS011;11748;50.844;4.396;2023-01-23T06:41:24;73.65;;;31.88;;
23159;SDS011;11748;50.844;4.396;2023-01-23T06:43:50;70.00;;;30.77;;
23159;SDS011;11748;50.844;4.396;2023-01-23T06:46:17;75.43;;;33.33;;
23159;SDS011;11748;50.844;4.396;2023-01-23T06:48:43;65.00;;;31.35;;
23159;SDS011;11748;50.844;4.396;2023-01-23T06:51:09;69.57;;;28.58;;
23159;SDS011;11748;50.844;4.396;2023-01-23T06:53:35;72.05;;;31.45;;
23159;SDS011;11748;50.844;4.396;2023-01-23T06:56:05;72.85;;;32.03;;
23159;SDS011;11748;50.844;4.396;2023-01-23T06:58:32;71.82;;;30.13;;
23159;SDS011;11748;50.844;4.396;2023-01-23T07:00:59;64.55;;;29.58;;
23159;SDS011;11748;50.844;4.396;2023-01-23T07:03:32;76.53;;;31.00;;
23159;SDS011;11748;50.844;4.396;2023-01-23T07:06:00;70.47;;;29.30;;
23159;SDS011;11748;50.844;4.396;2023-01-23T07:08:34;68.15;;;30.65;;
23159;SDS011;11748;50.844;4.396;2023-01-23T07:11:00;71.55;;;30.55;;
23159;SDS011;11748;50.844;4.396;2023-01-23T07:13:26;76.00;;;31.05;;
23159;SDS011;11748;50.844;4.396;2023-01-23T07:15:52;63.08;;;29.20;;
23159;SDS011;11748;50.844;4.396;2023-01-23T07:18:17;65.53;;;30.02;;
23159;SDS011;11748;50.844;4.396;2023-01-23T07:20:43;68.15;;;29.10;;
23159;SDS011;11748;50.844;4.396;2023-01-23T07:23:10;64.25;;;29.48;;
23159;SDS011;11748;50.844;4.396;2023-01-23T07:25:36;58.22;;;28.13;;
23159;SDS011;11748;50.844;4.396;2023-01-23T07:28:02;63.15;;;30.17;;
23159;SDS011;11748;50.844;4.396;2023-01-23T07:30:27;61.28;;;28.33;;
23159;SDS011;11748;50.844;4.396;2023-01-23T07:32:53;63.47;;;29.08;;
23159;SDS011;11748;50.844;4.396;2023-01-23T07:35:20;64.20;;;30.80;;
23159;SDS011;11748;50.844;4.396;2023-01-23T07:37:46;66.00;;;30.15;;
23159;SDS011;11748;50.844;4.396;2023-01-23T07:40:12;61.95;;;30.02;;
23159;SDS011;11748;50.844;4.396;2023-01-23T07:42:38;63.70;;;29.80;;
23159;SDS011;11748;50.844;4.396;2023-01-23T07:45:06;58.60;;;28.42;;
23159;SDS011;11748;50.844;4.396;2023-01-23T07:47:32;68.55;;;31.02;;
23159;SDS011;11748;50.844;4.396;2023-01-23T07:49:58;70.68;;;30.27;;
23159;SDS011;11748;50.844;4.396;2023-01-23T07:52:24;64.43;;;29.80;;
23159;SDS011;11748;50.844;4.396;2023-01-23T07:54:50;67.95;;;30.80;;
23159;SDS011;11748;50.844;4.396;2023-01-23T07:57:16;65.60;;;29.70;;
23159;SDS011;11748;50.844;4.396;2023-01-23T07:59:42;67.38;;;29.92;;
23159;SDS011;11748;50.844;4.396;2023-01-23T08:02:09;68.68;;;29.50;;
23159;SDS011;11748;50.844;4.396;2023-01-23T08:04:35;66.32;;;30.73;;
23159;SDS011;11748;50.844;4.396;2023-01-23T08:07:01;64.15;;;30.13;;
23159;SDS011;11748;50.844;4.396;2023-01-23T08:09:27;67.88;;;31.65;;
23159;SDS011;11748;50.844;4.396;2023-01-23T08:11:53;65.80;;;30.08;;
23159;SDS011;11748;50.844;4.396;2023-01-23T08:14:18;62.15;;;30.60;;
23159;SDS011;11748;50.844;4.396;2023-01-23T08:16:47;72.20;;;30.88;;
23159;SDS011;11748;50.844;4.396;2023-01-23T08:19:14;67.53;;;28.90;;
23159;SDS011;11748;50.844;4.396;2023-01-23T08:21:41;67.90;;;30.52;;
23159;SDS011;11748;50.844;4.396;2023-01-23T08:24:06;65.90;;;30.65;;
23159;SDS011;11748;50.844;4.396;2023-01-23T08:26:33;68.95;;;31.30;;
23159;SDS011;11748;50.844;4.396;2023-01-23T08:28:59;61.75;;;29.88;;
23159;SDS011;11748;50.844;4.396;2023-01-23T08:31:25;63.35;;;30.42;;
23159;SDS011;11748;50.844;4.396;2023-01-23T08:33:50;60.50;;;30.42;;
23159;SDS011;11748;50.844;4.396;2023-01-23T08:36:16;66.38;;;30.95;;
23159;SDS011;11748;50.844;4.396;2023-01-23T08:38:42;65.40;;;30.58;;
23159;SDS011;11748;50.844;4.396;2023-01-23T08:41:08;59.75;;;29.20;;
23159;SDS011;11748;50.844;4.396;2023-01-23T08:43:36;67.72;;;31.08;;
23159;SDS011;11748;50.844;4.396;2023-01-23T08:46:02;60.70;;;29.77;;
23159;SDS011;11748;50.844;4.396;2023-01-23T08:48:28;59.17;;;28.90;;
23159;SDS011;11748;50.844;4.396;2023-01-23T08:51:01;59.28;;;30.42;;
23159;SDS011;11748;50.844;4.396;2023-01-23T08:53:28;62.20;;;31.00;;
23159;SDS011;11748;50.844;4.396;2023-01-23T08:56:00;58.55;;;30.45;;
23159;SDS011;11748;50.844;4.396;2023-01-23T08:58:30;62.35;;;29.58;;
23159;SDS011;11748;50.844;4.396;2023-01-23T09:00:57;59.35;;;29.05;;
23159;SDS011;11748;50.844;4.396;2023-01-23T09:03:22;60.10;;;30.63;;
23159;SDS011;11748;50.844;4.396;2023-01-23T09:05:49;59.42;;;30.48;;
23159;SDS011;11748;50.844;4.396;2023-01-23T09:08:14;62.65;;;30.17;;
23159;SDS011;11748;50.844;4.396;2023-01-23T09:10:40;56.15;;;28.73;;
23159;SDS011;11748;50.844;4.396;2023-01-23T09:13:06;59.17;;;30.98;;
23159;SDS011;11748;50.844;4.396;2023-01-23T09:15:32;62.30;;;30.40;;
23159;SDS011;11748;50.844;4.396;2023-01-23T09:17:58;63.17;;;29.48;;
23159;SDS011;11748;50.844;4.396;2023-01-23T09:20:24;58.33;;;29.23;;
23159;SDS011;11748;50.844;4.396;2023-01-23T09:22:54;58.33;;;29.95;;
23159;SDS011;11748;50.844;4.396;2023-01-23T09:25:21;58.88;;;28.70;;
23159;SDS011;11748;50.844;4.396;2023-01-23T09:27:47;59.25;;;28.17;;
23159;SDS011;11748;50.844;4.396;2023-01-23T09:30:12;58.70;;;28.77;;
23159;SDS011;11748;50.844;4.396;2023-01-23T09:32:39;53.75;;;29.20;;
23159;SDS011;11748;50.844;4.396;2023-01-23T09:35:05;55.75;;;27.98;;
23159;SDS011;11748;50.844;4.396;2023-01-23T09:37:32;60.90;;;29.55;;
23159;SDS011;11748;50.844;4.396;2023-01-23T09:40:18;56.28;;;27.98;;
23159;SDS011;11748;50.844;4.396;2023-01-23T09:42:47;52.83;;;26.60;;
23159;SDS011;11748;50.844;4.396;2023-01-23T09:45:21;58.58;;;28.75;;
23159;SDS011;11748;50.844;4.396;2023-01-23T09:47:51;58.63;;;28.25;;
23159;SDS011;11748;50.844;4.396;2023-01-23T09:50:27;53.92;;;29.15;;
23159;SDS011;11748;50.844;4.396;2023-01-23T09:53:15;56.58;;;29.83;;
23159;SDS011;11748;50.844;4.396;2023-01-23T09:56:00;56.88;;;29.98;;
23159;SDS011;11748;50.844;4.396;2023-01-23T09:58:47;58.47;;;29.27;;
23159;SDS011;11748;50.844;4.396;2023-01-23T10:03:56;54.83;;;28.90;;
23159;SDS011;11748;50.844;4.396;2023-01-23T10:06:26;58.53;;;30.10;;
23159;SDS011;11748;50.844;4.396;2023-01-23T10:09:00;55.72;;;30.00;;
23159;SDS011;11748;50.844;4.396;2023-01-23T10:17:13;54.13;;;28.38;;
23159;SDS011;11748;50.844;4.396;2023-01-23T10:25:46;53.60;;;28.10;;
23159;SDS011;11748;50.844;4.396;2023-01-23T10:28:15;51.10;;;28.50;;
23159;SDS011;11748;50.844;4.396;2023-01-23T10:30:48;53.80;;;28.17;;
23159;SDS011;11748;50.844;4.396;2023-01-23T10:33:19;53.40;;;28.08;;
23159;SDS011;11748;50.844;4.396;2023-01-23T10:35:53;48.30;;;27.38;;
23159;SDS011;11748;50.844;4.396;2023-01-23T10:40:53;48.92;;;27.83;;
23159;SDS011;11748;50.844;4.396;2023-01-23T10:43:42;50.80;;;27.75;;
23159;SDS011;11748;50.844;4.396;2023-01-23T10:46:20;52.75;;;28.02;;
23159;SDS011;11748;50.844;4.396;2023-01-23T10:49:09;53.78;;;28.70;;
23159;SDS011;11748;50.844;4.396;2023-01-23T10:51:47;54.53;;;28.33;;
23159;SDS011;11748;50.844;4.396;2023-01-23T10:56:55;50.00;;;27.88;;
23159;SDS011;11748;50.844;4.396;2023-01-23T10:59:52;47.03;;;27.13;;
23159;SDS011;11748;50.844;4.396;2023-01-23T11:02:28;48.80;;;26.67;;
23159;SDS011;11748;50.844;4.396;2023-01-23T11:04:55;40.42;;;20.85;;
23159;SDS011;11748;50.844;4.396;2023-01-23T11:07:31;50.40;;;27.85;;
23159;SDS011;11748;50.844;4.396;2023-01-23T11:12:46;49.03;;;26.65;;
23159;SDS011;11748;50.844;4.396;2023-01-23T11:15:21;44.20;;;24.98;;
23159;SDS011;11748;50.844;4.396;2023-01-23T11:17:53;50.33;;;27.08;;
23159;SDS011;11748;50.844;4.396;2023-01-23T11:20:28;48.70;;;27.13;;
23159;SDS011;11748;50.844;4.396;2023-01-23T11:22:59;52.30;;;27.83;;
23159;SDS011;11748;50.844;4.396;2023-01-23T11:25:45;47.88;;;27.08;;
23159;SDS011;11748;50.844;4.396;2023-01-23T11:33:13;47.10;;;25.77;;
23159;SDS011;11748;50.844;4.396;2023-01-23T11:36:01;48.50;;;26.85;;
23159;SDS011;11748;50.844;4.396;2023-01-23T11:41:21;49.47;;;26.90;;
23159;SDS011;11748;50.844;4.396;2023-01-23T11:43:54;47.22;;;26.67;;
23159;SDS011;11748;50.844;4.396;2023-01-23T11:46:36;45.47;;;25.80;;
23159;SDS011;11748;50.844;4.396;2023-01-23T11:49:29;46.92;;;26.35;;
23159;SDS011;11748;50.844;4.396;2023-01-23T11:55:19;49.63;;;27.75;;
23159;SDS011;11748;50.844;4.396;2023-01-23T11:59:00;49.72;;;27.65;;
23159;SDS011;11748;50.844;4.396;2023-01-23T12:11:50;46.42;;;24.80;;
23159;SDS011;11748;50.844;4.396;2023-01-23T12:14:41;49.05;;;25.58;;
23159;SDS011;11748;50.844;4.396;2023-01-23T12:20:05;42.85;;;25.35;;
23159;SDS011;11748;50.844;4.396;2023-01-23T12:22:53;45.78;;;26.38;;
23159;SDS011;11748;50.844;4.396;2023-01-23T12:25:39;46.10;;;24.98;;
23159;SDS011;11748;50.844;4.396;2023-01-23T12:33:55;45.00;;;24.80;;
23159;SDS011;11748;50.844;4.396;2023-01-23T12:42:07;43.63;;;24.42;;
23159;SDS011;11748;50.844;4.396;2023-01-23T12:44:44;47.78;;;28.17;;
23159;SDS011;11748;50.844;4.396;2023-01-23T12:47:26;45.78;;;25.50;;
23159;SDS011;11748;50.844;4.396;2023-01-23T12:50:00;45.83;;;26.25;;
23159;SDS011;11748;50.844;4.396;2023-01-23T12:55:27;49.83;;;25.92;;
23159;SDS011;11748;50.844;4.396;2023-01-23T12:57:59;45.20;;;25.15;;
23159;SDS011;11748;50.844;4.396;2023-01-23T13:16:58;46.47;;;26.27;;
23159;SDS011;11748;50.844;4.396;2023-01-23T13:19:30;44.30;;;24.67;;
23159;SDS011;11748;50.844;4.396;2023-01-23T13:22:23;37.35;;;23.23;;
23159;SDS011;11748;50.844;4.396;2023-01-23T13:25:06;42.85;;;24.25;;
23159;SDS011;11748;50.844;4.396;2023-01-23T13:27:49;38.65;;;23.17;;
23159;SDS011;11748;50.844;4.396;2023-01-23T13:32:48;40.25;;;24.15;;
23159;SDS011;11748;50.844;4.396;2023-01-23T13:46:26;41.58;;;23.25;;
23159;SDS011;11748;50.844;4.396;2023-01-23T13:52:17;40.10;;;23.10;;
23159;SDS011;11748;50.844;4.396;2023-01-23T13:58:05;38.95;;;23.17;;
23159;SDS011;11748;50.844;4.396;2023-01-23T14:03:33;39.42;;;23.00;;
23159;SDS011;11748;50.844;4.396;2023-01-23T14:06:29;41.47;;;24.20;;
23159;SDS011;11748;50.844;4.396;2023-01-23T14:08:57;39.80;;;22.73;;
23159;SDS011;11748;50.844;4.396;2023-01-23T14:11:23;38.97;;;22.42;;
23159;SDS011;11748;50.844;4.396;2023-01-23T14:13:52;43.45;;;23.55;;
23159;SDS011;11748;50.844;4.396;2023-01-23T14:19:20;42.92;;;23.90;;
23159;SDS011;11748;50.844;4.396;2023-01-23T14:24:50;47.03;;;24.90;;
23159;SDS011;11748;50.844;4.396;2023-01-23T14:27:19;46.30;;;25.95;;
23159;SDS011;11748;50.844;4.396;2023-01-23T14:29:58;44.28;;;24.98;;
23159;SDS011;11748;50.844;4.396;2023-01-23T14:32:28;43.55;;;23.75;;
23159;SDS011;11748;50.844;4.396;2023-01-23T14:34:55;47.33;;;25.85;;
23159;SDS011;11748;50.844;4.396;2023-01-23T14:37:22;42.08;;;24.08;;
23159;SDS011;11748;50.844;4.396;2023-01-23T14:39:50;42.05;;;24.70;;
23159;SDS011;11748;50.844;4.396;2023-01-23T14:42:23;46.70;;;24.45;;
23159;SDS011;11748;50.844;4.396;2023-01-23T14:44:53;45.22;;;24.98;;
23159;SDS011;11748;50.844;4.396;2023-01-23T14:50:18;48.47;;;25.80;;
23159;SDS011;11748;50.844;4.396;2023-01-23T14:53:00;42.65;;;25.05;;
23159;SDS011;11748;50.844;4.396;2023-01-23T14:55:30;44.95;;;25.75;;
23159;SDS011;11748;50.844;4.396;2023-01-23T14:58:02;45.35;;;25.80;;
23159;SDS011;11748;50.844;4.396;2023-01-23T15:00:28;41.70;;;24.00;;
23159;SDS011;11748;50.844;4.396;2023-01-23T15:02:55;44.10;;;25.38;;
23159;SDS011;11748;50.844;4.396;2023-01-23T15:05:22;41.83;;;23.95;;
23159;SDS011;11748;50.844;4.396;2023-01-23T15:07:56;41.92;;;24.67;;
23159;SDS011;11748;50.844;4.396;2023-01-23T15:10:50;39.92;;;25.23;;
23159;SDS011;11748;50.844;4.396;2023-01-23T15:13:28;44.38;;;25.50;;
23159;SDS011;11748;50.844;4.396;2023-01-23T15:16:25;42.47;;;25.00;;
23159;SDS011;11748;50.844;4.396;2023-01-23T15:21:29;45.13;;;23.48;;
23159;SDS011;11748;50.844;4.396;2023-01-23T15:24:03;40.78;;;24.45;;
23159;SDS011;11748;50.844;4.396;2023-01-23T15:26:39;39.42;;;23.33;;
23159;SDS011;11748;50.844;4.396;2023-01-23T15:31:40;37.85;;;22.70;;
23159;SDS011;11748;50.844;4.396;2023-01-23T15:36:50;33.65;;;19.92;;
23159;SDS011;11748;50.844;4.396;2023-01-23T15:39:34;29.23;;;18.25;;
23159;SDS011;11748;50.844;4.396;2023-01-23T15:44:36;29.33;;;19.02;;
23159;SDS011;11748;50.844;4.396;2023-01-23T15:47:02;32.70;;;17.58;;
23159;SDS011;11748;50.844;4.396;2023-01-23T15:49:31;26.33;;;16.88;;
23159;SDS011;11748;50.844;4.396;2023-01-23T15:52:20;27.17;;;17.27;;
23159;SDS011;11748;50.844;4.396;2023-01-23T15:54:53;28.45;;;17.73;;
23159;SDS011;11748;50.844;4.396;2023-01-23T15:57:21;29.15;;;18.75;;
23159;SDS011;11748;50.844;4.396;2023-01-23T15:59:47;29.30;;;19.00;;
23159;SDS011;11748;50.844;4.396;2023-01-23T16:02:14;29.40;;;18.92;;
23159;SDS011;11748;50.844;4.396;2023-01-23T16:04:42;29.75;;;19.15;;
23159;SDS011;11748;50.844;4.396;2023-01-23T16:10:15;30.95;;;19.13;;
23159;SDS011;11748;50.844;4.396;2023-01-23T16:12:50;28.83;;;19.75;;
23159;SDS011;11748;50.844;4.396;2023-01-23T16:15:20;27.77;;;19.10;;
23159;SDS011;11748;50.844;4.396;2023-01-23T16:17:46;30.05;;;19.25;;
23159;SDS011;11748;50.844;4.396;2023-01-23T16:20:16;30.27;;;19.38;;
23159;SDS011;11748;50.844;4.396;2023-01-23T16:22:48;29.45;;;20.00;;
23159;SDS011;11748;50.844;4.396;2023-01-23T16:25:26;33.38;;;21.55;;
23159;SDS011;11748;50.844;4.396;2023-01-23T16:27:55;30.00;;;20.45;;
23159;SDS011;11748;50.844;4.396;2023-01-23T16:30:21;27.60;;;19.30;;
23159;SDS011;11748;50.844;4.396;2023-01-23T16:32:49;32.20;;;21.00;;
23159;SDS011;11748;50.844;4.396;2023-01-23T16:35:18;32.78;;;21.17;;
23159;SDS011;11748;50.844;4.396;2023-01-23T16:37:51;38.33;;;23.65;;
23159;SDS011;11748;50.844;4.396;2023-01-23T16:40:20;36.45;;;22.92;;
23159;SDS011;11748;50.844;4.396;2023-01-23T16:42:48;32.22;;;20.90;;
23159;SDS011;11748;50.844;4.396;2023-01-23T16:45:25;30.75;;;21.10;;
23159;SDS011;11748;50.844;4.396;2023-01-23T16:47:58;34.40;;;21.33;;
23159;SDS011;11748;50.844;4.396;2023-01-23T16:50:35;32.63;;;21.65;;